createdAt,value
2023-05-10T00:00:28.549Z,15.53
2023-05-10T00:01:28.527Z,15.48
2023-05-10T00:02:28.584Z,15.46
2023-05-10T00:03:28.633Z,15.43
2023-05-10T00:04:28.504Z,15.43
2023-05-10T00:05:28.487Z,15.40
2023-05-10T00:06:28.488Z,15.37
2023-05-10T00:07:28.471Z,15.37
2023-05-10T00:08:28.474Z,15.34
2023-05-10T00:09:28.451Z,15.28
2023-05-10T00:10:28.439Z,15.22
2023-05-10T00:11:28.430Z,15.18
2023-05-10T00:12:28.417Z,15.16
2023-05-10T00:13:28.441Z,15.12
2023-05-10T00:14:28.415Z,15.11
2023-05-10T00:15:28.384Z,15.05
2023-05-10T00:16:28.401Z,15.04
2023-05-10T00:17:28.378Z,15.01
2023-05-10T00:18:28.345Z,15.00
2023-05-10T00:19:28.354Z,14.98
2023-05-10T00:20:28.331Z,14.97
2023-05-10T00:21:28.329Z,14.95
2023-05-10T00:22:28.312Z,14.98
2023-05-10T00:23:28.291Z,14.94
2023-05-10T00:24:28.309Z,14.93
2023-05-10T00:25:28.275Z,14.94
2023-05-10T00:26:28.261Z,14.95
2023-05-10T00:27:28.243Z,14.94
2023-05-10T00:28:28.241Z,14.94
2023-05-10T00:29:28.245Z,14.93
2023-05-10T00:30:28.228Z,14.95
2023-05-10T00:31:28.212Z,14.93
2023-05-10T00:32:28.232Z,14.93
2023-05-10T00:33:28.188Z,14.90
2023-05-10T00:34:28.228Z,14.90
2023-05-10T00:35:28.174Z,14.91
2023-05-10T00:36:28.158Z,14.91
2023-05-10T00:37:28.142Z,14.90
2023-05-10T00:38:28.139Z,14.86
2023-05-10T00:39:28.119Z,14.85
2023-05-10T00:40:28.130Z,14.82
2023-05-10T00:41:28.098Z,14.80
2023-05-10T00:42:28.119Z,14.79
2023-05-10T00:43:28.092Z,14.78
2023-05-10T00:44:28.078Z,14.78
2023-05-10T00:45:28.069Z,14.78
2023-05-10T00:46:28.190Z,14.79
2023-05-10T00:47:28.083Z,14.75
2023-05-10T00:48:28.030Z,14.78
2023-05-10T00:49:28.025Z,14.78
2023-05-10T00:50:28.006Z,14.74
2023-05-10T00:51:27.988Z,14.75
2023-05-10T00:52:28.003Z,14.71
2023-05-10T00:53:27.966Z,14.67
2023-05-10T00:54:27.973Z,14.66
2023-05-10T00:55:27.966Z,14.66
2023-05-10T00:56:27.942Z,14.63
2023-05-10T00:57:27.921Z,14.64
2023-05-10T00:58:27.926Z,14.64
2023-05-10T00:59:27.904Z,14.63
2023-05-10T01:00:27.913Z,14.60
2023-05-10T01:01:27.966Z,14.57
2023-05-10T01:02:27.953Z,14.56
2023-05-10T01:03:27.906Z,14.52
2023-05-10T01:04:27.885Z,14.53
2023-05-10T01:05:27.840Z,14.53
2023-05-10T01:06:27.831Z,14.54
2023-05-10T01:07:27.817Z,14.54
2023-05-10T01:08:27.832Z,14.53
2023-05-10T01:09:27.803Z,14.53
2023-05-10T01:10:27.790Z,14.52
2023-05-10T01:11:27.781Z,14.53
2023-05-10T01:12:27.775Z,14.52
2023-05-10T01:13:27.882Z,14.48
2023-05-10T01:14:27.745Z,14.45
2023-05-10T01:15:27.751Z,14.45
2023-05-10T01:16:27.799Z,14.42
2023-05-10T01:17:27.793Z,14.41
2023-05-10T01:18:27.707Z,14.41
2023-05-10T01:19:27.712Z,14.41
2023-05-10T01:20:27.681Z,14.41
2023-05-10T01:21:27.682Z,14.42
2023-05-10T01:22:27.756Z,14.39
2023-05-10T01:23:27.649Z,14.36
2023-05-10T01:24:27.639Z,14.36
2023-05-10T01:25:27.619Z,14.35
2023-05-10T01:26:27.627Z,14.35
2023-05-10T01:27:27.597Z,14.35
2023-05-10T01:28:27.594Z,14.35
2023-05-10T01:29:27.579Z,14.34
2023-05-10T01:30:27.802Z,14.34
2023-05-10T01:31:27.601Z,14.31
2023-05-10T01:32:27.633Z,14.34
2023-05-10T01:33:27.533Z,14.31
2023-05-10T01:34:27.542Z,14.34
2023-05-10T01:35:27.515Z,14.31
2023-05-10T01:36:27.507Z,14.31
2023-05-10T01:37:27.485Z,14.31
2023-05-10T01:38:27.510Z,14.34
2023-05-10T01:39:27.468Z,14.31
2023-05-10T01:40:27.469Z,14.34
2023-05-10T01:41:27.449Z,14.35
2023-05-10T01:42:27.444Z,14.31
2023-05-10T01:43:27.421Z,14.31
2023-05-10T01:44:27.433Z,14.31
2023-05-10T01:45:27.406Z,14.31
2023-05-10T01:46:27.394Z,14.30
2023-05-10T01:47:27.392Z,14.30
2023-05-10T01:48:27.382Z,14.31
2023-05-10T01:49:27.372Z,14.29
2023-05-10T01:50:27.347Z,14.27
2023-05-10T01:51:27.333Z,14.29
2023-05-10T01:52:27.359Z,14.29
2023-05-10T01:53:27.329Z,14.27
2023-05-10T01:54:27.338Z,14.27
2023-05-10T01:55:27.293Z,14.26
2023-05-10T01:56:27.309Z,14.24
2023-05-10T01:57:27.293Z,14.24
2023-05-10T01:58:27.278Z,14.26
2023-05-10T01:59:27.296Z,14.24
2023-05-10T02:00:27.331Z,14.24
2023-05-10T02:01:27.264Z,14.27
2023-05-10T02:02:27.276Z,14.27
2023-05-10T02:03:27.265Z,14.29
2023-05-10T02:04:27.228Z,14.27
2023-05-10T02:05:27.204Z,14.27
2023-05-10T02:06:27.201Z,14.26
2023-05-10T02:07:27.195Z,14.26
2023-05-10T02:08:27.160Z,14.27
2023-05-10T02:09:27.165Z,14.29
2023-05-10T02:10:27.167Z,14.27
2023-05-10T02:11:27.130Z,14.27
2023-05-10T02:12:27.123Z,14.30
2023-05-10T02:13:27.300Z,14.34
2023-05-10T02:14:27.106Z,14.35
2023-05-10T02:15:27.113Z,14.31
2023-05-10T02:16:27.158Z,14.31
2023-05-10T02:17:27.133Z,14.29
2023-05-10T02:18:27.055Z,14.30
2023-05-10T02:19:27.036Z,14.27
2023-05-10T02:20:27.052Z,14.27
2023-05-10T02:21:27.051Z,14.27
2023-05-10T02:22:27.029Z,14.26
2023-05-10T02:23:27.016Z,14.23
2023-05-10T02:24:26.985Z,14.24
2023-05-10T02:25:27.001Z,14.26
2023-05-10T02:26:27.020Z,14.23
2023-05-10T02:27:26.972Z,14.20
2023-05-10T02:28:26.954Z,14.19
2023-05-10T02:29:26.933Z,14.20
2023-05-10T02:30:26.940Z,14.19
2023-05-10T02:31:26.961Z,14.16
2023-05-10T02:32:26.927Z,14.13
2023-05-10T02:33:26.913Z,14.13
2023-05-10T02:34:26.886Z,14.13
2023-05-10T02:35:26.893Z,14.12
2023-05-10T02:36:26.879Z,14.13
2023-05-10T02:37:26.871Z,14.13
2023-05-10T02:38:26.853Z,14.11
2023-05-10T02:39:26.853Z,14.12
2023-05-10T02:40:28.649Z,14.13
2023-05-10T02:41:26.816Z,14.13
2023-05-10T02:42:26.846Z,14.16
2023-05-10T02:43:26.792Z,14.16
2023-05-10T02:44:26.795Z,14.17
2023-05-10T02:45:26.768Z,14.16
2023-05-10T02:46:26.873Z,14.19
2023-05-10T02:47:26.774Z,14.19
2023-05-10T02:48:26.748Z,14.20
2023-05-10T02:49:26.746Z,14.19
2023-05-10T02:50:26.715Z,14.20
2023-05-10T02:51:26.718Z,14.20
2023-05-10T02:52:26.698Z,14.20
2023-05-10T02:53:26.704Z,14.20
2023-05-10T02:54:26.671Z,14.21
2023-05-10T02:55:26.657Z,14.21
2023-05-10T02:56:26.648Z,14.23
2023-05-10T02:57:26.639Z,14.21
2023-05-10T02:58:26.660Z,14.21
2023-05-10T02:59:26.612Z,14.21
2023-05-10T03:00:26.632Z,14.23
2023-05-10T03:01:26.654Z,14.23
2023-05-10T03:02:26.630Z,14.23
2023-05-10T03:03:26.610Z,14.21
2023-05-10T03:04:26.589Z,14.21
2023-05-10T03:05:26.553Z,14.21
2023-05-10T03:06:26.572Z,14.24
2023-05-10T03:07:26.546Z,14.24
2023-05-10T03:08:26.544Z,14.23
2023-05-10T03:09:26.518Z,14.24
2023-05-10T03:10:26.486Z,14.23
2023-05-10T03:11:26.498Z,14.23
2023-05-10T03:12:26.501Z,14.23
2023-05-10T03:13:26.551Z,14.21
2023-05-10T03:14:26.485Z,14.21
2023-05-10T03:15:26.436Z,14.24
2023-05-10T03:16:26.506Z,14.23
2023-05-10T03:17:26.510Z,14.23
2023-05-10T03:18:26.432Z,14.24
2023-05-10T03:19:26.403Z,14.26
2023-05-10T03:20:26.382Z,14.24
2023-05-10T03:21:26.388Z,14.23
2023-05-10T03:22:26.360Z,14.24
2023-05-10T03:23:26.363Z,14.27
2023-05-10T03:24:26.346Z,14.29
2023-05-10T03:25:26.357Z,14.30
2023-05-10T03:26:26.332Z,14.30
2023-05-10T03:27:26.339Z,14.30
2023-05-10T03:28:26.330Z,14.30
2023-05-10T03:29:26.305Z,14.30
2023-05-10T03:30:26.315Z,14.31
2023-05-10T03:31:26.392Z,14.34
2023-05-10T03:32:26.287Z,14.35
2023-05-10T03:33:26.270Z,14.35
2023-05-10T03:34:26.269Z,14.36
2023-05-10T03:35:26.955Z,14.36
2023-05-10T03:36:26.245Z,14.36
2023-05-10T03:37:27.190Z,14.36
2023-05-10T03:38:27.324Z,14.35
2023-05-10T03:39:26.887Z,14.38
2023-05-10T03:40:26.181Z,14.36
2023-05-10T03:41:26.896Z,14.35
2023-05-10T03:42:26.196Z,14.36
2023-05-10T03:43:26.861Z,14.31
2023-05-10T03:44:26.158Z,14.34
2023-05-10T03:45:26.202Z,14.34
2023-05-10T03:46:26.151Z,14.36
2023-05-10T03:47:26.853Z,14.35
2023-05-10T03:48:26.158Z,14.35
2023-05-10T03:49:26.803Z,14.35
2023-05-10T03:50:26.282Z,14.34
2023-05-10T03:51:26.797Z,14.34
2023-05-10T03:52:26.165Z,14.31
2023-05-10T03:53:26.165Z,14.30
2023-05-10T03:54:26.118Z,14.30
2023-05-10T03:55:26.207Z,14.31
2023-05-10T03:56:26.047Z,14.31
2023-05-10T03:57:26.128Z,14.31
2023-05-10T03:58:26.014Z,14.34
2023-05-10T03:59:27.646Z,14.35
2023-05-10T04:00:26.091Z,14.35
2023-05-10T04:01:26.033Z,14.34
2023-05-10T04:02:26.352Z,14.34
2023-05-10T04:03:26.871Z,14.34
2023-05-10T04:04:26.076Z,14.35
2023-05-10T04:05:26.636Z,14.36
2023-05-10T04:06:25.926Z,14.35
2023-05-10T04:07:25.946Z,14.36
2023-05-10T04:08:25.984Z,14.38
2023-05-10T04:09:26.071Z,14.36
2023-05-10T04:10:26.045Z,14.36
2023-05-10T04:11:25.941Z,14.36
2023-05-10T04:12:25.878Z,14.35
2023-05-10T04:13:26.039Z,14.35
2023-05-10T04:14:25.971Z,14.36
2023-05-10T04:15:25.908Z,14.36
2023-05-10T04:16:25.970Z,14.39
2023-05-10T04:17:26.532Z,14.38
2023-05-10T04:18:25.957Z,14.39
2023-05-10T04:19:25.950Z,14.39
2023-05-10T04:20:25.772Z,14.41
2023-05-10T04:21:25.826Z,14.41
2023-05-10T04:22:25.784Z,14.38
2023-05-10T04:23:25.874Z,14.39
2023-05-10T04:24:25.734Z,14.41
2023-05-10T04:25:26.419Z,14.39
2023-05-10T04:26:26.038Z,14.39
2023-05-10T04:27:25.815Z,14.39
2023-05-10T04:28:25.704Z,14.39
2023-05-10T04:29:25.845Z,14.44
2023-05-10T04:30:25.711Z,14.41
2023-05-10T04:31:25.746Z,14.44
2023-05-10T04:32:26.359Z,14.45
2023-05-10T04:33:25.623Z,14.45
2023-05-10T04:34:26.679Z,14.46
2023-05-10T04:35:25.641Z,14.42
2023-05-10T04:36:25.604Z,14.44
2023-05-10T04:37:25.572Z,14.42
2023-05-10T04:38:25.560Z,14.41
2023-05-10T04:39:25.588Z,14.42
2023-05-10T04:40:25.531Z,14.41
2023-05-10T04:41:25.530Z,14.39
2023-05-10T04:42:25.490Z,14.41
2023-05-10T04:43:25.505Z,14.42
2023-05-10T04:44:25.471Z,14.44
2023-05-10T04:45:25.523Z,14.45
2023-05-10T04:46:25.492Z,14.45
2023-05-10T04:47:25.472Z,14.44
2023-05-10T04:48:25.436Z,14.46
2023-05-10T04:49:25.439Z,14.44
2023-05-10T04:50:25.424Z,14.44
2023-05-10T04:51:25.430Z,14.42
2023-05-10T04:52:25.440Z,14.42
2023-05-10T04:53:25.401Z,14.44
2023-05-10T04:54:25.377Z,14.45
2023-05-10T04:55:25.355Z,14.45
2023-05-10T04:56:25.354Z,14.45
2023-05-10T04:57:25.362Z,14.48
2023-05-10T04:58:25.352Z,14.46
2023-05-10T04:59:25.520Z,14.46
2023-05-10T05:00:25.320Z,14.48
2023-05-10T05:01:25.334Z,14.49
2023-05-10T05:02:25.356Z,14.52
2023-05-10T05:03:25.389Z,14.48
2023-05-10T05:04:25.271Z,14.49
2023-05-10T05:05:25.248Z,14.53
2023-05-10T05:06:25.242Z,14.56
2023-05-10T05:07:25.262Z,14.56
2023-05-10T05:08:25.220Z,14.56
2023-05-10T05:09:25.231Z,14.56
2023-05-10T05:10:25.204Z,14.57
2023-05-10T05:11:25.213Z,14.59
2023-05-10T05:12:25.177Z,14.57
2023-05-10T05:13:25.279Z,14.60
2023-05-10T05:14:25.187Z,14.61
2023-05-10T05:15:25.161Z,14.64
2023-05-10T05:16:25.169Z,14.66
2023-05-10T05:17:25.120Z,14.66
2023-05-10T05:18:25.105Z,14.67
2023-05-10T05:19:25.116Z,14.67
2023-05-10T05:20:25.101Z,14.69
2023-05-10T05:21:25.072Z,14.71
2023-05-10T05:22:25.059Z,14.72
2023-05-10T05:23:25.071Z,14.78
2023-05-10T05:24:25.051Z,14.78
2023-05-10T05:25:25.053Z,14.80
2023-05-10T05:26:25.042Z,14.83
2023-05-10T05:27:25.018Z,14.83
2023-05-10T05:28:25.025Z,14.86
2023-05-10T05:29:25.020Z,14.90
2023-05-10T05:30:24.983Z,14.87
2023-05-10T05:31:25.037Z,14.87
2023-05-10T05:32:25.019Z,14.90
2023-05-10T05:33:24.942Z,14.90
2023-05-10T05:34:24.926Z,14.90
2023-05-10T05:35:24.934Z,14.90
2023-05-10T05:36:24.924Z,14.91
2023-05-10T05:37:24.913Z,14.93
2023-05-10T05:38:24.895Z,14.95
2023-05-10T05:39:24.889Z,14.98
2023-05-10T05:40:24.866Z,15.00
2023-05-10T05:41:24.894Z,15.01
2023-05-10T05:42:24.858Z,15.01
2023-05-10T05:43:24.861Z,15.00
2023-05-10T05:44:24.811Z,15.00
2023-05-10T05:45:24.832Z,15.03
2023-05-10T05:46:24.852Z,15.03
2023-05-10T05:47:24.830Z,15.04
2023-05-10T05:48:24.804Z,15.05
2023-05-10T05:49:24.812Z,15.04
2023-05-10T05:50:24.779Z,15.07
2023-05-10T05:51:24.757Z,15.04
2023-05-10T05:52:24.729Z,15.05
2023-05-10T05:53:24.736Z,15.07
2023-05-10T05:54:24.731Z,15.09
2023-05-10T05:55:24.731Z,15.09
2023-05-10T05:56:24.690Z,15.13
2023-05-10T05:57:24.712Z,15.18
2023-05-10T05:58:24.691Z,15.16
2023-05-10T05:59:24.681Z,15.19
2023-05-10T06:00:24.655Z,15.22
2023-05-10T06:01:24.642Z,15.22
2023-05-10T06:02:24.688Z,15.23
2023-05-10T06:03:24.721Z,15.25
2023-05-10T06:04:24.640Z,15.27
2023-05-10T06:05:24.613Z,15.27
2023-05-10T06:06:24.578Z,15.30
2023-05-10T06:07:24.581Z,15.28
2023-05-10T06:08:24.572Z,15.30
2023-05-10T06:09:24.556Z,15.31
2023-05-10T06:10:24.539Z,15.35
2023-05-10T06:11:24.557Z,15.34
2023-05-10T06:12:24.532Z,15.34
2023-05-10T06:13:24.568Z,15.34
2023-05-10T06:14:24.503Z,15.31
2023-05-10T06:15:24.493Z,15.35
2023-05-10T06:16:24.509Z,15.33
2023-05-10T06:17:24.473Z,15.31
2023-05-10T06:18:24.486Z,15.37
2023-05-10T06:19:24.448Z,15.38
2023-05-10T06:20:24.449Z,15.41
2023-05-10T06:21:24.449Z,15.44
2023-05-10T06:22:24.428Z,15.43
2023-05-10T06:23:24.421Z,15.46
2023-05-10T06:24:24.398Z,15.43
2023-05-10T06:25:24.395Z,15.44
2023-05-10T06:26:24.382Z,15.46
2023-05-10T06:27:24.378Z,15.43
2023-05-10T06:28:24.377Z,15.43
2023-05-10T06:29:24.362Z,15.41
2023-05-10T06:30:24.343Z,15.43
2023-05-10T06:31:24.451Z,15.46
2023-05-10T06:32:24.382Z,15.49
2023-05-10T06:33:24.305Z,15.51
2023-05-10T06:34:24.308Z,15.51
2023-05-10T06:35:24.287Z,15.52
2023-05-10T06:36:24.267Z,15.53
2023-05-10T06:37:24.250Z,15.51
2023-05-10T06:38:24.248Z,15.53
2023-05-10T06:39:24.242Z,15.53
2023-05-10T06:40:24.230Z,15.55
2023-05-10T06:41:24.868Z,15.55
2023-05-10T06:42:24.186Z,15.56
2023-05-10T06:43:24.184Z,15.59
2023-05-10T06:44:24.196Z,15.64
2023-05-10T06:45:24.190Z,15.64
2023-05-10T06:46:24.182Z,15.66
2023-05-10T06:47:24.141Z,15.66
2023-05-10T06:48:24.139Z,15.67
2023-05-10T06:49:24.122Z,15.67
2023-05-10T06:50:24.141Z,15.73
2023-05-10T06:51:24.119Z,15.73
2023-05-10T06:52:24.095Z,15.78
2023-05-10T06:53:24.097Z,15.84
2023-05-10T06:54:24.072Z,15.85
2023-05-10T06:55:24.053Z,15.86
2023-05-10T06:56:24.053Z,15.89
2023-05-10T06:58:25.033Z,15.95
2023-05-10T06:59:24.096Z,15.98
2023-05-10T07:00:24.050Z,15.98
2023-05-10T07:01:24.322Z,15.98
2023-05-10T07:02:24.044Z,15.96
2023-05-10T07:03:24.046Z,15.98
2023-05-10T07:04:23.978Z,15.96
2023-05-10T07:05:24.010Z,16.03
2023-05-10T07:06:32.920Z,16.04
2023-05-10T07:07:24.932Z,16.08
2023-05-10T07:08:23.951Z,16.16
2023-05-10T07:09:23.903Z,16.22
2023-05-10T07:10:23.965Z,16.26
2023-05-10T07:11:23.896Z,16.32
2023-05-10T07:12:23.907Z,16.36
2023-05-10T07:13:24.066Z,16.37
2023-05-10T07:14:23.857Z,16.40
2023-05-10T07:15:23.886Z,16.42
2023-05-10T07:16:23.900Z,16.44
2023-05-10T07:17:23.863Z,16.47
2023-05-10T07:18:23.821Z,16.51
2023-05-10T07:19:23.802Z,16.51
2023-05-10T07:20:23.815Z,16.50
2023-05-10T07:21:23.816Z,16.50
2023-05-10T07:22:23.767Z,16.52
2023-05-10T07:23:23.779Z,16.54
2023-05-10T07:24:23.748Z,16.52
2023-05-10T07:25:23.741Z,16.54
2023-05-10T07:26:23.723Z,16.48
2023-05-10T07:27:23.738Z,16.47
2023-05-10T07:28:23.715Z,16.47
2023-05-10T07:29:23.708Z,16.48
2023-05-10T07:30:23.782Z,16.47
2023-05-10T07:31:23.693Z,16.44
2023-05-10T07:32:23.838Z,16.42
2023-05-10T07:33:23.706Z,16.41
2023-05-10T07:34:23.644Z,16.41
2023-05-10T07:35:23.614Z,16.37
2023-05-10T07:36:23.619Z,16.42
2023-05-10T07:37:23.597Z,16.41
2023-05-10T07:38:23.591Z,16.42
2023-05-10T07:39:27.643Z,16.44
2023-05-10T07:40:23.594Z,16.44
2023-05-10T07:41:23.568Z,16.48
2023-05-10T07:42:23.551Z,16.52
2023-05-10T07:43:23.543Z,16.59
2023-05-10T07:44:23.562Z,16.63
2023-05-10T07:45:23.511Z,16.69
2023-05-10T07:46:23.647Z,16.69
2023-05-10T07:47:23.532Z,16.73
2023-05-10T07:48:23.521Z,16.77
2023-05-10T07:49:23.457Z,16.82
2023-05-10T07:50:23.482Z,16.84
2023-05-10T07:51:23.451Z,16.85
2023-05-10T07:52:23.464Z,16.82
2023-05-10T07:53:23.433Z,16.80
2023-05-10T07:54:23.418Z,16.75
2023-05-10T07:55:23.415Z,16.75
2023-05-10T07:56:23.386Z,16.77
2023-05-10T07:57:23.389Z,16.75
2023-05-10T07:58:23.381Z,16.75
2023-05-10T07:59:23.355Z,16.67
2023-05-10T08:00:23.366Z,16.67
2023-05-10T08:01:23.352Z,16.70
2023-05-10T08:02:23.375Z,16.70
2023-05-10T08:03:23.406Z,16.73
2023-05-10T08:04:23.450Z,16.78
2023-05-10T08:05:23.311Z,16.78
2023-05-10T08:06:23.287Z,16.78
2023-05-10T08:07:23.265Z,16.75
2023-05-10T08:08:23.270Z,16.73
2023-05-10T08:09:23.268Z,16.75
2023-05-10T08:10:23.255Z,16.78
2023-05-10T08:11:23.227Z,16.77
2023-05-10T08:12:23.221Z,16.75
2023-05-10T08:13:23.208Z,16.77
2023-05-10T08:14:23.200Z,16.70
2023-05-10T08:15:23.186Z,16.66
2023-05-10T08:16:23.262Z,16.66
2023-05-10T08:17:24.739Z,16.67
2023-05-10T08:18:23.226Z,16.66
2023-05-10T08:19:23.159Z,16.65
2023-05-10T08:20:23.124Z,16.66
2023-05-10T08:21:23.150Z,16.65
2023-05-10T08:22:23.128Z,16.69
2023-05-10T08:23:23.104Z,16.77
2023-05-10T08:24:23.091Z,16.80
2023-05-10T08:25:23.077Z,16.85
2023-05-10T08:26:23.094Z,16.88
2023-05-10T08:27:23.063Z,16.85
2023-05-10T08:28:23.050Z,16.85
2023-05-10T08:29:23.020Z,16.84
2023-05-10T08:30:23.028Z,16.82
2023-05-10T08:31:23.080Z,16.85
2023-05-10T08:32:23.008Z,16.91
2023-05-10T08:33:22.981Z,16.96
2023-05-10T08:34:23.295Z,16.98
2023-05-10T08:35:22.972Z,16.98
2023-05-10T08:36:23.013Z,17.00
2023-05-10T08:37:22.947Z,16.96
2023-05-10T08:38:22.930Z,16.92
2023-05-10T08:39:29.900Z,16.92
2023-05-10T08:40:23.908Z,16.95
2023-05-10T08:41:22.945Z,16.96
2023-05-10T08:42:22.913Z,17.02
2023-05-10T08:43:22.872Z,17.03
2023-05-10T08:44:22.874Z,17.02
2023-05-10T08:45:22.893Z,17.06
2023-05-10T08:46:22.946Z,17.10
2023-05-10T08:47:22.888Z,17.15
2023-05-10T08:48:22.940Z,17.22
2023-05-10T08:49:22.832Z,17.32
2023-05-10T08:50:22.812Z,17.40
2023-05-10T08:51:22.902Z,17.47
2023-05-10T08:52:22.827Z,17.57
2023-05-10T08:53:22.789Z,17.60
2023-05-10T08:54:22.758Z,17.58
2023-05-10T08:55:22.746Z,17.58
2023-05-10T08:56:22.817Z,17.63
2023-05-10T08:57:22.736Z,17.68
2023-05-10T08:58:22.751Z,17.71
2023-05-10T08:59:22.698Z,17.71
2023-05-10T09:00:22.702Z,17.71
2023-05-10T09:01:22.836Z,17.71
2023-05-10T09:02:22.692Z,17.77
2023-05-10T09:03:22.788Z,17.74
2023-05-10T09:04:22.752Z,17.74
2023-05-10T09:05:22.684Z,17.74
2023-05-10T09:06:22.665Z,17.80
2023-05-10T09:07:22.644Z,17.84
2023-05-10T09:08:22.619Z,17.87
2023-05-10T09:09:22.619Z,17.87
2023-05-10T09:10:22.676Z,17.92
2023-05-10T09:11:22.592Z,17.96
2023-05-10T09:12:22.584Z,18.02
2023-05-10T09:13:22.579Z,18.09
2023-05-10T09:14:22.557Z,18.13
2023-05-10T09:15:22.559Z,18.17
2023-05-10T09:16:22.748Z,18.21
2023-05-10T09:17:22.653Z,18.25
2023-05-10T09:18:22.587Z,18.23
2023-05-10T09:19:22.506Z,18.26
2023-05-10T09:20:22.490Z,18.31
2023-05-10T09:21:22.512Z,18.35
2023-05-10T09:22:22.471Z,18.25
2023-05-10T09:23:22.442Z,18.21
2023-05-10T09:24:22.503Z,18.16
2023-05-10T09:25:22.432Z,18.20
2023-05-10T09:26:22.431Z,18.19
2023-05-10T09:27:22.533Z,18.11
2023-05-10T09:28:22.404Z,18.07
2023-05-10T09:29:22.414Z,18.10
2023-05-10T09:30:22.392Z,18.14
2023-05-10T09:31:22.480Z,18.19
2023-05-10T09:32:22.395Z,18.26
2023-05-10T09:33:22.336Z,18.26
2023-05-10T09:34:22.329Z,18.31
2023-05-10T09:35:22.302Z,18.29
2023-05-10T09:36:22.368Z,18.36
2023-05-10T09:37:22.294Z,18.42
2023-05-10T09:38:22.301Z,18.50
2023-05-10T09:39:22.263Z,18.53
2023-05-10T09:40:22.278Z,18.57
2023-05-10T09:41:22.258Z,18.59
2023-05-10T09:42:22.265Z,18.57
2023-05-10T09:43:22.241Z,18.57
2023-05-10T09:44:22.234Z,18.64
2023-05-10T09:45:22.208Z,18.68
2023-05-10T09:46:22.237Z,18.71
2023-05-10T09:47:22.189Z,18.68
2023-05-10T09:48:22.196Z,18.66
2023-05-10T09:49:22.154Z,18.54
2023-05-10T09:50:22.165Z,18.50
2023-05-10T09:51:22.133Z,18.46
2023-05-10T09:52:22.135Z,18.36
2023-05-10T09:53:22.140Z,18.29
2023-05-10T09:54:22.121Z,18.21
2023-05-10T09:55:22.086Z,18.17
2023-05-10T09:56:22.089Z,18.14
2023-05-10T09:57:22.075Z,18.16
2023-05-10T09:58:22.071Z,18.10
2023-05-10T09:59:22.066Z,18.10
2023-05-10T10:00:22.057Z,18.13
2023-05-10T10:01:22.080Z,18.16
2023-05-10T10:02:22.030Z,18.19
2023-05-10T10:03:22.028Z,18.17
2023-05-10T10:04:22.030Z,18.14
2023-05-10T10:05:22.025Z,18.19
2023-05-10T10:06:29.625Z,18.28
2023-05-10T10:07:22.961Z,18.35
2023-05-10T10:08:22.001Z,18.41
2023-05-10T10:09:21.951Z,18.42
2023-05-10T10:10:21.936Z,18.42
2023-05-10T10:11:21.932Z,18.36
2023-05-10T10:12:21.918Z,18.35
2023-05-10T10:13:21.929Z,18.28
2023-05-10T10:14:21.898Z,18.26
2023-05-10T10:15:22.239Z,18.21
2023-05-10T10:16:21.946Z,18.20
2023-05-10T10:17:21.872Z,18.14
2023-05-10T10:18:21.905Z,18.16
2023-05-10T10:19:21.845Z,18.20
2023-05-10T10:20:21.876Z,18.20
2023-05-10T10:21:21.802Z,18.17
2023-05-10T10:22:21.809Z,18.19
2023-05-10T10:23:21.797Z,18.21
2023-05-10T10:24:21.810Z,18.26
2023-05-10T10:25:21.780Z,18.26
2023-05-10T10:26:21.755Z,18.26
2023-05-10T10:27:21.747Z,18.29
2023-05-10T10:28:21.746Z,18.36
2023-05-10T10:29:21.740Z,18.46
2023-05-10T10:30:21.722Z,18.56
2023-05-10T10:31:21.751Z,18.62
2023-05-10T10:32:21.729Z,18.66
2023-05-10T10:34:22.666Z,18.76
2023-05-10T10:35:21.685Z,18.76
2023-05-10T10:36:21.664Z,18.86
2023-05-10T10:37:21.644Z,18.89
2023-05-10T10:38:21.637Z,18.96
2023-05-10T10:39:21.633Z,19.01
2023-05-10T10:40:21.635Z,19.01
2023-05-10T10:41:21.622Z,18.94
2023-05-10T10:42:21.599Z,18.84
2023-05-10T10:43:21.611Z,18.83
2023-05-10T10:44:21.566Z,18.84
2023-05-10T10:45:21.559Z,18.82
2023-05-10T10:46:21.575Z,18.78
2023-05-10T10:47:21.547Z,18.71
2023-05-10T10:48:21.538Z,18.72
2023-05-10T10:49:21.515Z,18.69
2023-05-10T10:50:21.504Z,18.66
2023-05-10T10:51:21.489Z,18.69
2023-05-10T10:52:21.499Z,18.68
2023-05-10T10:53:21.487Z,18.72
2023-05-10T10:54:21.450Z,18.82
2023-05-10T10:55:21.464Z,18.94
2023-05-10T10:56:21.435Z,18.96
2023-05-10T10:57:21.423Z,18.99
2023-05-10T10:58:21.405Z,18.83
2023-05-10T10:59:21.401Z,18.75
2023-05-10T11:00:21.422Z,18.72
2023-05-10T11:01:21.411Z,18.72
2023-05-10T11:02:21.373Z,18.74
2023-05-10T11:03:21.364Z,18.74
2023-05-10T11:04:21.425Z,18.72
2023-05-10T11:05:21.339Z,18.72
2023-05-10T11:06:21.346Z,18.79
2023-05-10T11:07:21.319Z,18.84
2023-05-10T11:08:21.328Z,18.84
2023-05-10T11:09:21.306Z,18.74
2023-05-10T11:10:21.304Z,18.75
2023-05-10T11:11:21.276Z,18.82
2023-05-10T11:12:21.253Z,18.83
2023-05-10T11:13:21.250Z,18.82
2023-05-10T11:14:21.271Z,18.78
2023-05-10T11:15:21.233Z,18.79
2023-05-10T11:16:21.395Z,18.91
2023-05-10T11:17:21.227Z,18.96
2023-05-10T11:18:21.296Z,18.91
2023-05-10T11:19:21.251Z,18.93
2023-05-10T11:20:21.181Z,18.90
2023-05-10T11:21:21.167Z,18.87
2023-05-10T11:22:21.160Z,18.78
2023-05-10T11:23:21.147Z,18.71
2023-05-10T11:24:21.145Z,18.71
2023-05-10T11:25:21.122Z,18.74
2023-05-10T11:26:21.117Z,18.75
2023-05-10T11:27:21.119Z,18.72
2023-05-10T11:28:21.089Z,18.66
2023-05-10T11:29:21.170Z,18.60
2023-05-10T11:30:21.205Z,18.59
2023-05-10T11:31:21.172Z,18.57
2023-05-10T11:32:21.062Z,18.65
2023-05-10T11:33:21.044Z,18.72
2023-05-10T11:34:21.024Z,18.74
2023-05-10T11:35:21.001Z,18.83
2023-05-10T11:36:21.005Z,18.75
2023-05-10T11:37:20.995Z,18.78
2023-05-10T11:38:21.003Z,18.78
2023-05-10T11:39:20.969Z,18.78
2023-05-10T11:40:20.972Z,18.87
2023-05-10T11:41:20.947Z,19.01
2023-05-10T11:42:20.967Z,19.06
2023-05-10T11:43:20.928Z,19.17
2023-05-10T11:44:20.927Z,19.24
2023-05-10T11:45:20.913Z,19.27
2023-05-10T11:46:20.978Z,19.23
2023-05-10T11:47:20.895Z,19.35
2023-05-10T11:48:20.883Z,19.39
2023-05-10T11:49:20.868Z,19.30
2023-05-10T11:50:20.842Z,19.27
2023-05-10T11:51:20.866Z,19.15
2023-05-10T11:52:20.839Z,19.02
2023-05-10T11:53:20.849Z,18.94
2023-05-10T11:54:20.844Z,18.91
2023-05-10T11:55:20.811Z,18.82
2023-05-10T11:56:20.789Z,18.78
2023-05-10T11:57:20.787Z,18.78
2023-05-10T11:58:20.781Z,18.76
2023-05-10T11:59:20.794Z,18.75
2023-05-10T12:00:20.805Z,18.76
2023-05-10T12:01:20.826Z,18.74
2023-05-10T12:02:20.854Z,18.72
2023-05-10T12:03:21.001Z,18.72
2023-05-10T12:04:20.929Z,18.75
2023-05-10T12:05:20.780Z,18.74
2023-05-10T12:06:20.812Z,18.65
2023-05-10T12:07:20.780Z,18.65
2023-05-10T12:08:20.747Z,18.65
2023-05-10T12:09:31.463Z,18.57
2023-05-10T12:10:21.632Z,18.54
2023-05-10T12:11:20.644Z,18.51
2023-05-10T12:12:20.638Z,18.49
2023-05-10T12:13:20.608Z,18.44
2023-05-10T12:14:20.586Z,18.39
2023-05-10T12:15:20.610Z,18.38
2023-05-10T12:16:20.671Z,18.34
2023-05-10T12:17:20.573Z,18.34
2023-05-10T12:18:20.594Z,18.32
2023-05-10T12:19:20.537Z,18.36
2023-05-10T12:20:20.751Z,18.39
2023-05-10T12:21:20.530Z,18.41
2023-05-10T12:22:20.510Z,18.36
2023-05-10T12:23:20.514Z,18.36
2023-05-10T12:24:20.498Z,18.35
2023-05-10T12:25:20.476Z,18.31
2023-05-10T12:26:20.453Z,18.38
2023-05-10T12:27:20.460Z,18.42
2023-05-10T12:28:20.437Z,18.39
2023-05-10T12:29:20.449Z,18.34
2023-05-10T12:30:21.143Z,18.31
2023-05-10T12:31:20.434Z,18.38
2023-05-10T12:32:20.431Z,18.47
2023-05-10T12:33:20.467Z,18.59
2023-05-10T12:34:20.380Z,18.78
2023-05-10T12:35:20.386Z,18.94
2023-05-10T12:36:20.372Z,19.09
2023-05-10T12:37:20.636Z,19.20
2023-05-10T12:38:20.352Z,19.31
2023-05-10T12:39:20.360Z,19.42
2023-05-10T12:40:20.300Z,19.46
2023-05-10T12:41:20.360Z,19.39
2023-05-10T12:42:20.306Z,19.32
2023-05-10T12:43:20.286Z,19.34
2023-05-10T12:44:20.299Z,19.39
2023-05-10T12:45:20.260Z,19.43
2023-05-10T12:46:20.248Z,19.61
2023-05-10T12:47:20.242Z,19.62
2023-05-10T12:48:20.218Z,19.55
2023-05-10T12:49:20.239Z,19.50
2023-05-10T12:50:20.205Z,19.46
2023-05-10T12:51:20.185Z,19.39
2023-05-10T12:52:20.194Z,19.32
2023-05-10T12:53:20.218Z,19.24
2023-05-10T12:54:20.169Z,19.17